Time;durP1;ratioP1;P1;durP2;ratioP2;P2;SDS_P1;SDS_P2;PMS_P1;PMS_P2;Temp;Humidity;BMP_temperature;BMP_pressure;BME280_temperature;BME280_humidity;BME280_pressure;Samples;Min_cycle;Max_cycle;Signal;HPM_P1;HPM_P2
2024/03/20 00:02:17;;;;;;;3.10;2.63;;;14.70;99.90;;;;;;5024773;28;20465;-85
2024/03/20 00:04:43;;;;;;;6.10;3.47;;;14.80;99.90;;;;;;5057429;28;20489;-85
2024/03/20 00:07:11;;;;;;;3.73;3.33;;;14.70;99.90;;;;;;5073011;28;21316;-85
2024/03/20 00:09:37;;;;;;;3.17;2.67;;;14.70;99.90;;;;;;5033065;28;20519;-85
2024/03/20 00:12:12;;;;;;;3.73;2.80;;;14.70;99.90;;;;;;5057996;28;20465;-84
2024/03/20 00:14:39;;;;;;;4.37;3.40;;;14.70;99.90;;;;;;5042331;28;20941;-85
2024/03/20 00:17:30;;;;;;;3.57;3.10;;;14.70;99.90;;;;;;5060442;28;20433;-85
2024/03/20 00:20:00;;;;;;;3.30;2.70;;;14.70;99.90;;;;;;5057613;28;20184;-84
2024/03/20 00:22:27;;;;;;;4.80;2.90;;;14.70;99.90;;;;;;5040457;28;20979;-85
2024/03/20 00:24:56;;;;;;;2.70;2.50;;;14.70;99.90;;;;;;5024738;28;20458;-85
2024/03/20 00:27:22;;;;;;;3.10;2.60;;;14.70;99.90;;;;;;5041100;28;20891;-85
2024/03/20 00:29:48;;;;;;;3.60;3.00;;;14.70;99.90;;;;;;5041066;28;20442;-84
2024/03/20 00:32:14;;;;;;;3.80;3.10;;;14.60;99.90;;;;;;5024192;28;20442;-84
2024/03/20 00:34:40;;;;;;;3.57;3.23;;;14.60;99.90;;;;;;5021263;28;20816;-85
2024/03/20 00:37:06;;;;;;;5.13;3.23;;;14.60;99.90;;;;;;5057551;28;20457;-85
2024/03/20 00:39:35;;;;;;;5.73;3.00;;;14.60;99.90;;;;;;5044770;28;20444;-85
2024/03/20 00:42:00;;;;;;;4.10;3.00;;;14.60;99.90;;;;;;5051828;28;20430;-84
2024/03/20 00:44:28;;;;;;;3.90;3.07;;;14.60;99.90;;;;;;5040779;28;20285;-85
2024/03/20 00:46:54;;;;;;;4.70;3.03;;;14.60;99.90;;;;;;5024375;28;20301;-85
2024/03/20 00:49:20;;;;;;;4.63;2.80;;;14.60;99.90;;;;;;5028090;28;20542;-84
2024/03/20 00:51:49;;;;;;;3.13;2.83;;;14.60;99.90;;;;;;5040683;28;20202;-85
2024/03/20 00:54:14;;;;;;;3.40;2.77;;;14.60;99.90;;;;;;5057133;28;20230;-84
2024/03/20 00:56:41;;;;;;;3.77;3.27;;;14.60;99.90;;;;;;5040532;28;20485;-84
2024/03/20 00:59:07;;;;;;;3.30;2.87;;;14.60;99.90;;;;;;5027898;28;20438;-85
2024/03/20 01:01:33;;;;;;;4.97;2.87;;;14.60;99.90;;;;;;5056929;28;20414;-84
2024/03/20 01:03:59;;;;;;;4.50;3.20;;;14.60;99.90;;;;;;5024170;28;20489;-85
2024/03/20 01:06:25;;;;;;;4.60;3.10;;;14.60;99.90;;;;;;5040686;28;21034;-86
2024/03/20 01:08:50;;;;;;;5.73;3.10;;;14.50;99.90;;;;;;5024066;28;20430;-85
2024/03/20 01:11:16;;;;;;;3.10;2.80;;;14.50;99.90;;;;;;5024333;28;20196;-84
2024/03/20 01:13:42;;;;;;;3.03;2.83;;;14.50;99.90;;;;;;5057384;28;20490;-84
2024/03/20 01:16:11;;;;;;;3.57;2.53;;;14.50;99.90;;;;;;5045375;28;20461;-85
2024/03/20 01:18:39;;;;;;;3.07;2.77;;;14.50;99.90;;;;;;5053554;28;20507;-85
2024/03/20 01:21:06;;;;;;;3.83;3.20;;;14.50;99.90;;;;;;5039586;28;20448;-85
2024/03/20 01:23:32;;;;;;;5.50;2.90;;;14.50;99.90;;;;;;5027765;28;20537;-84
2024/03/20 01:26:00;;;;;;;5.47;2.73;;;14.50;99.90;;;;;;5023767;28;21201;-84
2024/03/20 01:28:27;;;;;;;3.30;3.00;;;14.50;99.90;;;;;;5023539;28;20447;-85
2024/03/20 01:30:56;;;;;;;3.67;2.73;;;14.50;99.90;;;;;;5027212;28;20418;-85
2024/03/20 01:33:25;;;;;;;3.90;3.03;;;14.40;99.90;;;;;;5056843;28;20433;-85
2024/03/20 01:35:51;;;;;;;3.27;2.70;;;14.40;99.90;;;;;;5030122;28;20778;-85
2024/03/20 01:38:16;;;;;;;2.87;2.53;;;14.40;99.90;;;;;;5022471;28;20476;-85
2024/03/20 01:40:44;;;;;;;2.83;2.63;;;14.40;99.90;;;;;;5062987;28;21037;-85
2024/03/20 01:43:20;;;;;;;7.97;2.97;;;14.40;99.90;;;;;;5052370;28;20257;-84
2024/03/20 01:45:48;;;;;;;3.80;3.00;;;14.40;99.90;;;;;;5044431;28;20474;-84
2024/03/20 01:48:14;;;;;;;4.53;3.00;;;14.40;99.90;;;;;;5019699;28;20814;-84
2024/03/20 01:50:41;;;;;;;5.30;2.90;;;14.40;99.90;;;;;;5048504;28;20422;-85
2024/03/20 01:53:07;;;;;;;3.70;3.03;;;14.40;99.90;;;;;;5056055;28;20421;-85
2024/03/20 01:55:36;;;;;;;4.87;2.90;;;14.40;99.90;;;;;;5035235;28;20453;-84
2024/03/20 01:58:02;;;;;;;3.53;2.83;;;14.40;99.90;;;;;;5021425;28;21102;-84
2024/03/20 02:00:28;;;;;;;3.23;2.80;;;14.30;99.90;;;;;;5050502;28;20422;-84
2024/03/20 02:02:58;;;;;;;3.10;2.60;;;14.30;99.90;;;;;;5039315;28;20461;-85
2024/03/20 02:05:24;;;;;;;3.77;3.47;;;14.30;99.90;;;;;;5039769;28;21109;-85
2024/03/20 02:07:56;;;;;;;4.10;3.10;;;14.30;99.90;;;;;;5039817;28;20422;-84
2024/03/20 02:10:25;;;;;;;4.73;3.10;;;14.30;99.90;;;;;;5039497;28;20497;-84
2024/03/20 02:13:07;;;;;;;3.20;2.80;;;14.30;99.90;;;;;;5055779;28;20528;-85
2024/03/20 02:15:34;;;;;;;5.50;2.70;;;14.30;99.90;;;;;;5039209;28;20821;-85
2024/03/20 02:18:01;;;;;;;3.07;2.33;;;14.30;99.90;;;;;;5038693;28;20483;-85
2024/03/20 02:20:27;;;;;;;3.87;3.17;;;14.20;99.90;;;;;;5022534;28;20430;-84
2024/03/20 02:22:53;;;;;;;4.83;3.17;;;14.20;99.90;;;;;;5038981;28;20442;-85
2024/03/20 02:25:20;;;;;;;3.30;2.80;;;14.30;99.90;;;;;;5039072;28;20480;-85
2024/03/20 02:27:47;;;;;;;2.90;2.60;;;14.20;99.90;;;;;;5038997;28;20442;-84
2024/03/20 02:30:15;;;;;;;3.20;2.47;;;14.20;99.90;;;;;;5022566;28;20445;-85
2024/03/20 02:32:41;;;;;;;3.73;2.93;;;14.20;99.90;;;;;;5055392;28;20737;-84
2024/03/20 02:35:08;;;;;;;3.10;2.57;;;14.20;99.90;;;;;;5055311;28;20445;-85
2024/03/20 02:37:34;;;;;;;4.20;2.73;;;14.20;99.90;;;;;;5022203;28;20440;-84
2024/03/20 02:39:59;;;;;;;5.70;2.97;;;14.20;99.90;;;;;;5038766;28;20450;-84
2024/03/20 02:42:25;;;;;;;3.40;3.10;;;14.20;99.90;;;;;;5038744;28;20426;-85
2024/03/20 02:44:53;;;;;;;3.60;2.87;;;14.20;99.90;;;;;;5022295;28;20190;-85
2024/03/20 02:47:19;;;;;;;3.13;2.83;;;14.20;99.90;;;;;;5021680;28;20501;-85
2024/03/20 02:49:47;;;;;;;3.30;2.90;;;14.20;99.90;;;;;;5075596;28;20539;-84
2024/03/20 02:52:18;;;;;;;4.47;2.73;;;14.20;99.90;;;;;;5055348;28;20434;-85
2024/03/20 02:54:46;;;;;;;4.23;3.40;;;14.20;99.90;;;;;;5055399;28;21169;-84
2024/03/20 02:57:12;;;;;;;2.93;2.63;;;14.10;99.90;;;;;;5059891;28;20560;-85
2024/03/20 02:59:38;;;;;;;3.87;3.07;;;14.10;99.90;;;;;;5041834;28;20454;-85
2024/03/20 03:02:06;;;;;;;4.60;2.97;;;14.10;99.90;;;;;;5038760;28;20898;-85
2024/03/20 03:04:35;;;;;;;3.20;2.80;;;14.10;99.90;;;;;;5022429;28;20452;-84
2024/03/20 03:07:01;;;;;;;4.50;3.00;;;14.10;99.90;;;;;;5041315;28;20822;-84
2024/03/20 03:09:27;;;;;;;5.30;3.20;;;14.10;99.90;;;;;;5039730;28;20520;-85
2024/03/20 03:11:53;;;;;;;3.13;2.87;;;14.10;99.90;;;;;;5022284;28;20454;-84
2024/03/20 03:14:19;;;;;;;4.60;2.90;;;14.10;99.90;;;;;;5022139;28;20449;-84
2024/03/20 03:16:45;;;;;;;3.60;3.17;;;14.10;99.90;;;;;;5021876;28;20596;-85
2024/03/20 03:19:13;;;;;;;4.43;2.97;;;14.10;99.90;;;;;;5037199;28;20203;-85
2024/03/20 03:21:40;;;;;;;4.00;3.33;;;14.00;99.90;;;;;;5037822;28;20889;-84
2024/03/20 03:24:07;;;;;;;6.13;2.80;;;14.10;99.90;;;;;;5021845;28;20474;-85
2024/03/20 03:26:33;;;;;;;3.73;2.70;;;14.00;99.90;;;;;;5040577;28;20464;-84
2024/03/20 03:29:00;;;;;;;4.23;3.20;;;14.00;99.90;;;;;;5017984;28;20439;-85
2024/03/20 03:31:28;;;;;;;3.07;2.40;;;14.00;99.90;;;;;;5062499;28;20433;-84
2024/03/20 03:33:54;;;;;;;2.70;2.50;;;14.00;99.90;;;;;;5065845;28;20880;-84
2024/03/20 03:36:20;;;;;;;2.90;2.70;;;14.00;99.90;;;;;;5052199;28;20458;-84
2024/03/20 03:38:46;;;;;;;4.10;2.57;;;14.00;99.90;;;;;;5070254;28;20452;-84
2024/03/20 03:41:14;;;;;;;3.80;2.90;;;14.00;99.90;;;;;;5052192;28;20455;-85
2024/03/20 03:43:42;;;;;;;8.30;3.10;;;14.00;99.90;;;;;;5027205;28;20528;-85
2024/03/20 03:46:08;;;;;;;4.03;2.97;;;14.00;99.90;;;;;;5032516;28;20497;-85
2024/03/20 03:48:34;;;;;;;3.33;2.80;;;14.00;99.90;;;;;;5019417;28;20482;-85
2024/03/20 03:51:01;;;;;;;4.73;2.90;;;14.00;99.90;;;;;;5042030;28;20708;-85
2024/03/20 03:53:33;;;;;;;4.63;3.13;;;13.90;99.90;;;;;;5054494;28;20195;-84
2024/03/20 03:55:59;;;;;;;3.87;2.93;;;14.00;99.90;;;;;;5021531;28;20483;-85
2024/03/20 03:58:25;;;;;;;3.50;3.20;;;13.90;99.90;;;;;;5049308;28;20418;-85
2024/03/20 04:00:51;;;;;;;5.37;2.77;;;13.90;99.90;;;;;;5037097;28;20430;-85
2024/03/20 04:03:21;;;;;;;4.20;3.77;;;13.90;99.90;;;;;;5037288;28;20493;-84
2024/03/20 04:05:59;;;;;;;3.37;3.07;;;13.90;99.90;;;;;;5054483;28;20470;-84
2024/03/20 04:08:25;;;;;;;4.20;2.93;;;13.90;99.90;;;;;;5043092;28;20461;-84
2024/03/20 04:10:54;;;;;;;3.60;2.40;;;13.90;99.90;;;;;;5040688;28;20419;-86
2024/03/20 04:13:22;;;;;;;4.10;2.70;;;13.90;99.90;;;;;;5047727;28;20445;-84
2024/03/20 04:15:48;;;;;;;6.30;3.10;;;13.90;99.90;;;;;;5060529;28;20426;-85
2024/03/20 04:18:17;;;;;;;3.27;2.97;;;13.90;99.90;;;;;;5070747;28;20445;-84
2024/03/20 04:20:44;;;;;;;2.67;2.47;;;13.90;99.90;;;;;;5053960;28;20481;-85
2024/03/20 04:23:10;;;;;;;5.90;2.83;;;13.90;99.90;;;;;;5037139;28;20425;-85
2024/03/20 04:25:36;;;;;;;5.87;2.93;;;13.80;99.90;;;;;;5037524;28;20478;-85
2024/03/20 04:28:03;;;;;;;4.43;2.50;;;13.90;99.90;;;;;;5069151;28;20450;-84
2024/03/20 04:30:31;;;;;;;3.83;3.30;;;13.90;99.90;;;;;;5054159;28;20434;-84
2024/03/20 04:33:00;;;;;;;3.40;2.70;;;13.90;99.90;;;;;;5037202;28;20432;-84
2024/03/20 04:35:28;;;;;;;3.67;3.07;;;13.80;99.90;;;;;;5043921;28;20472;-83
2024/03/20 04:37:54;;;;;;;4.50;2.90;;;13.80;99.90;;;;;;5036850;28;20492;-84
2024/03/20 04:40:22;;;;;;;4.63;3.13;;;13.80;99.90;;;;;;5018922;28;20941;-84
2024/03/20 04:42:48;;;;;;;3.80;2.97;;;13.80;99.90;;;;;;5056914;28;20483;-84
2024/03/20 04:45:14;;;;;;;3.13;2.70;;;13.80;99.90;;;;;;5056590;28;20430;-84
2024/03/20 04:47:40;;;;;;;3.40;3.10;;;13.80;99.90;;;;;;5040403;28;20441;-85
2024/03/20 04:50:10;;;;;;;3.77;3.30;;;13.80;99.90;;;;;;5056476;28;20434;-84
2024/03/20 04:52:37;;;;;;;4.33;3.10;;;13.80;99.90;;;;;;5056895;28;20517;-85
2024/03/20 04:55:07;;;;;;;3.30;3.00;;;13.80;99.90;;;;;;5023591;28;20432;-85
2024/03/20 04:57:34;;;;;;;4.13;3.10;;;13.70;99.90;;;;;;5040437;28;21119;-83
2024/03/20 04:59:59;;;;;;;3.57;2.90;;;13.70;99.90;;;;;;5046962;28;20464;-84
2024/03/20 05:02:30;;;;;;;5.83;3.47;;;13.70;99.90;;;;;;5056329;28;20516;-84
2024/03/20 05:05:01;;;;;;;4.37;3.43;;;13.80;99.90;;;;;;5023426;28;20984;-84
2024/03/20 05:07:32;;;;;;;3.70;2.97;;;13.80;99.90;;;;;;5039793;28;20478;-84
2024/03/20 05:10:07;;;;;;;4.07;3.00;;;13.70;99.90;;;;;;5029120;28;21137;-84
2024/03/20 05:12:35;;;;;;;3.13;2.80;;;13.70;99.90;;;;;;5039782;28;20426;-85
2024/03/20 05:15:02;;;;;;;4.80;2.83;;;13.70;99.90;;;;;;5023348;28;20438;-85
2024/03/20 05:17:31;;;;;;;4.40;3.20;;;13.70;99.90;;;;;;5036420;28;21208;-85
2024/03/20 05:19:57;;;;;;;3.80;2.50;;;13.70;99.90;;;;;;5056493;28;20448;-85
2024/03/20 05:22:23;;;;;;;3.10;2.60;;;13.70;99.90;;;;;;5023801;28;20829;-85
2024/03/20 05:24:52;;;;;;;3.90;2.60;;;13.60;99.90;;;;;;5073511;28;20516;-85
2024/03/20 05:27:18;;;;;;;3.30;2.73;;;13.70;99.90;;;;;;5039933;28;20469;-85
2024/03/20 05:29:45;;;;;;;2.73;2.50;;;13.70;99.90;;;;;;5056545;28;20438;-84
2024/03/20 05:32:11;;;;;;;3.97;2.77;;;13.60;99.90;;;;;;5023664;28;20532;-85
2024/03/20 05:34:39;;;;;;;3.30;2.93;;;13.70;99.90;;;;;;5023971;28;20521;-86
2024/03/20 05:37:07;;;;;;;3.53;2.50;;;13.60;99.90;;;;;;5040837;22;21445;-28
2024/03/20 05:39:36;;;;;;;3.57;2.90;;;13.60;99.90;;;;;;5025916;28;20434;-29
2024/03/20 05:42:04;;;;;;;3.53;3.10;;;13.60;99.90;;;;;;5059097;28;21166;-30
2024/03/20 05:44:31;;;;;;;3.30;2.80;;;13.60;99.90;;;;;;5041473;28;20413;-33
2024/03/20 05:46:59;;;;;;;3.43;2.80;;;13.60;99.90;;;;;;5024300;28;20466;-26
2024/03/20 05:49:26;;;;;;;6.27;3.40;;;13.60;99.90;;;;;;5059912;28;21023;-27
2024/03/20 05:51:54;;;;;;;3.03;2.50;;;13.60;99.90;;;;;;5058636;28;20456;-28
2024/03/20 05:54:20;;;;;;;4.33;3.30;;;13.60;99.90;;;;;;5041197;28;20796;-31
2024/03/20 05:56:46;;;;;;;3.60;3.00;;;13.60;99.90;;;;;;5025003;28;20441;-29
2024/03/20 05:59:12;;;;;;;4.50;2.77;;;13.60;99.90;;;;;;5059691;28;20444;-30
2024/03/20 06:01:38;;;;;;;5.17;3.27;;;13.60;99.90;;;;;;5059104;28;21044;-29
2024/03/20 06:04:08;;;;;;;3.23;2.90;;;13.60;99.90;;;;;;5058540;28;21007;-27
2024/03/20 06:06:34;;;;;;;6.00;3.63;;;13.60;99.90;;;;;;5059211;28;20476;-28
2024/03/20 06:09:10;;;;;;;4.70;2.73;;;13.50;99.90;;;;;;5041419;28;20422;-31
2024/03/20 06:11:36;;;;;;;3.77;2.87;;;13.60;99.90;;;;;;5041502;28;20426;-29
2024/03/20 06:14:07;;;;;;;3.53;3.23;;;13.50;99.90;;;;;;5023753;28;20425;-27
2024/03/20 06:16:33;;;;;;;5.23;3.20;;;13.50;99.90;;;;;;5058566;28;20418;-28
2024/03/20 06:18:59;;;;;;;3.63;3.17;;;13.50;99.90;;;;;;5040718;28;21107;-28
2024/03/20 06:21:27;;;;;;;4.40;2.90;;;13.50;99.90;;;;;;5058745;28;20440;-27
2024/03/20 06:23:53;;;;;;;4.10;3.30;;;13.50;99.90;;;;;;5059005;28;20406;-28
2024/03/20 06:26:22;;;;;;;4.33;2.87;;;13.50;99.90;;;;;;5058586;28;20453;-30
2024/03/20 06:28:51;;;;;;;4.30;3.53;;;13.50;99.90;;;;;;5041613;28;21112;-26
2024/03/20 06:31:17;;;;;;;3.70;3.20;;;13.50;99.90;;;;;;5059760;28;20410;-29
2024/03/20 06:33:44;;;;;;;4.87;3.40;;;13.50;99.90;;;;;;5059044;28;20834;-28
2024/03/20 06:36:11;;;;;;;3.57;3.10;;;13.50;99.90;;;;;;5044257;28;20792;-27
2024/03/20 06:38:37;;;;;;;5.33;3.00;;;13.50;99.90;;;;;;5025851;28;20450;-29
2024/03/20 06:41:04;;;;;;;4.13;2.93;;;13.50;99.90;;;;;;5058621;28;20425;-28
2024/03/20 06:43:34;;;;;;;4.00;2.60;;;13.50;99.90;;;;;;5042811;28;20484;-27
2024/03/20 06:46:01;;;;;;;3.67;3.00;;;13.50;99.90;;;;;;5061945;28;20450;-26
2024/03/20 06:48:28;;;;;;;4.40;3.17;;;13.40;99.90;;;;;;5058565;28;20442;-26
2024/03/20 06:50:58;;;;;;;4.50;4.07;;;13.40;99.90;;;;;;5052699;28;20453;-26
2024/03/20 06:53:27;;;;;;;4.20;3.00;;;13.40;99.90;;;;;;5060401;28;20422;-26
2024/03/20 06:55:55;;;;;;;4.73;2.93;;;13.40;99.90;;;;;;5021275;28;20426;-26
2024/03/20 06:58:22;;;;;;;4.30;3.43;;;13.40;99.90;;;;;;5038897;28;20492;-25
2024/03/20 07:00:48;;;;;;;4.23;3.10;;;13.40;99.90;;;;;;5057266;28;20423;-26
2024/03/20 07:03:16;;;;;;;4.40;3.20;;;13.40;99.90;;;;;;5038669;28;20422;-26
2024/03/20 07:05:44;;;;;;;3.40;3.10;;;13.40;99.90;;;;;;5036014;28;21015;-26
2024/03/20 07:08:10;;;;;;;5.60;3.70;;;13.40;99.90;;;;;;5056918;28;20445;-26
2024/03/20 07:10:44;;;;;;;4.10;3.70;;;13.40;99.90;;;;;;5035734;28;20430;-27
2024/03/20 07:13:12;;;;;;;3.50;3.20;;;13.40;99.90;;;;;;5055621;28;20414;-25
2024/03/20 07:15:46;;;;;;;4.17;3.77;;;13.40;99.90;;;;;;5015750;28;20418;-26
2024/03/20 07:18:12;;;;;;;5.00;4.10;;;13.40;99.90;;;;;;5041729;28;20446;-26
2024/03/20 07:20:38;;;;;;;3.90;3.50;;;13.40;99.90;;;;;;5023473;28;20417;-27
2024/03/20 07:23:05;;;;;;;4.37;3.57;;;13.40;99.90;;;;;;5057813;28;20430;-28
2024/03/20 07:25:33;;;;;;;6.60;4.40;;;13.40;99.90;;;;;;5039827;28;20453;-32
2024/03/20 07:28:03;;;;;;;5.50;3.80;;;13.40;99.90;;;;;;5058228;28;21050;-29
2024/03/20 07:30:29;;;;;;;5.23;4.10;;;13.40;99.90;;;;;;5058427;28;20416;-27
2024/03/20 07:32:57;;;;;;;8.07;4.07;;;13.40;99.90;;;;;;5057454;28;20418;-30
2024/03/20 07:35:24;;;;;;;5.17;4.00;;;13.40;99.90;;;;;;5059214;28;20442;-28
2024/03/20 07:37:50;;;;;;;5.33;4.07;;;13.40;99.90;;;;;;5060836;28;20450;-26
2024/03/20 07:40:17;;;;;;;7.40;3.60;;;13.40;99.90;;;;;;5055972;28;21821;-29
2024/03/20 07:42:45;;;;;;;7.40;3.70;;;13.40;99.90;;;;;;5057092;28;20422;-28
2024/03/20 07:45:11;;;;;;;5.57;4.03;;;13.40;99.90;;;;;;5039785;28;20436;-27
2024/03/20 07:47:38;;;;;;;5.80;4.00;;;13.40;99.90;;;;;;5057561;28;20438;-28
2024/03/20 07:50:05;;;;;;;4.70;3.73;;;13.40;99.90;;;;;;5038255;28;20426;-27
2024/03/20 07:52:35;;;;;;;5.03;4.13;;;13.40;99.90;;;;;;5021888;28;20465;-28
2024/03/20 07:55:02;;;;;;;5.47;4.57;;;13.40;99.90;;;;;;5056553;28;20421;-31
2024/03/20 07:57:29;;;;;;;4.37;3.80;;;13.40;99.90;;;;;;5021245;28;20458;-30
2024/03/20 07:59:55;;;;;;;5.57;4.23;;;13.40;99.90;;;;;;5055454;28;20438;-27
2024/03/20 08:02:23;;;;;;;5.07;4.00;;;13.40;99.90;;;;;;5038779;28;20452;-26
2024/03/20 08:04:49;;;;;;;4.80;4.40;;;13.40;99.90;;;;;;5037204;28;20441;-27
2024/03/20 08:07:20;;;;;;;7.50;4.20;;;13.40;99.90;;;;;;5036250;28;20454;-28
2024/03/20 08:09:47;;;;;;;4.77;3.80;;;13.40;99.90;;;;;;5056347;28;20459;-26
2024/03/20 08:12:14;;;;;;;4.43;3.60;;;13.40;99.90;;;;;;5037880;28;20453;-26
2024/03/20 08:14:40;;;;;;;5.87;4.30;;;13.40;99.90;;;;;;5056578;28;20426;-26
2024/03/20 08:17:08;;;;;;;6.97;4.10;;;13.40;99.90;;;;;;5027542;28;20464;-27
2024/03/20 08:19:39;;;;;;;5.90;4.53;;;13.40;99.90;;;;;;5037799;28;20473;-27
2024/03/20 08:22:05;;;;;;;4.47;3.93;;;13.40;99.90;;;;;;5061051;28;20512;-30
2024/03/20 08:24:32;;;;;;;5.67;4.10;;;13.50;99.90;;;;;;5039755;28;20560;-28
2024/03/20 08:26:58;;;;;;;5.60;4.87;;;13.40;99.90;;;;;;5042346;28;20535;-26
2024/03/20 08:29:24;;;;;;;5.33;3.90;;;13.50;99.90;;;;;;5059923;28;20422;-30
2024/03/20 08:31:53;;;;;;;6.50;4.47;;;13.50;99.90;;;;;;5062537;28;20417;-29
2024/03/20 08:34:19;;;;;;;6.93;4.83;;;13.50;99.90;;;;;;5041085;28;20422;-26
2024/03/20 08:36:45;;;;;;;5.07;4.57;;;13.50;99.90;;;;;;5021817;28;20458;-26
2024/03/20 08:39:11;;;;;;;6.10;4.90;;;13.50;99.90;;;;;;5041695;28;21332;-28
2024/03/20 08:41:42;;;;;;;6.50;4.70;;;13.50;99.90;;;;;;5043009;28;20433;-27
2024/03/20 08:44:08;;;;;;;5.20;4.20;;;13.50;99.90;;;;;;5059814;28;20524;-28
2024/03/20 08:46:38;;;;;;;4.83;4.30;;;13.50;99.90;;;;;;5059765;28;20461;-25
2024/03/20 08:49:04;;;;;;;6.53;4.60;;;13.50;99.90;;;;;;5058899;28;21173;-26
2024/03/20 08:51:30;;;;;;;6.30;4.37;;;13.50;99.90;;;;;;5041627;28;20851;-26
2024/03/20 08:53:56;;;;;;;4.83;4.30;;;13.50;99.90;;;;;;5023165;28;20504;-29
2024/03/20 08:56:22;;;;;;;6.33;4.70;;;13.60;99.90;;;;;;5060328;28;20457;-29
2024/03/20 08:58:51;;;;;;;5.57;4.70;;;13.60;99.90;;;;;;5041535;28;20438;-33
2024/03/20 09:01:18;;;;;;;5.80;4.53;;;13.60;99.90;;;;;;5040923;28;20438;-34
2024/03/20 09:03:44;;;;;;;5.77;4.93;;;13.60;99.90;;;;;;5042109;28;20425;-31
2024/03/20 09:06:11;;;;;;;5.60;5.03;;;13.60;99.90;;;;;;5041587;28;20460;-33
2024/03/20 09:08:37;;;;;;;5.30;4.73;;;13.60;99.90;;;;;;5059547;28;20450;-30
2024/03/20 09:11:03;;;;;;;5.97;5.00;;;13.60;99.90;;;;;;5007073;28;20429;-30
2024/03/20 09:13:31;;;;;;;6.40;5.40;;;13.60;99.90;;;;;;5060112;28;20422;-26
2024/03/20 09:15:57;;;;;;;5.57;4.73;;;13.70;99.90;;;;;;5059842;28;21240;-28
2024/03/20 09:18:28;;;;;;;5.17;4.67;;;13.70;99.90;;;;;;5023009;28;20968;-33
2024/03/20 09:20:56;;;;;;;5.83;5.03;;;13.70;99.90;;;;;;5058817;28;20455;-30
2024/03/20 09:23:23;;;;;;;6.20;5.10;;;13.70;99.90;;;;;;5041196;28;20434;-31
2024/03/20 09:25:50;;;;;;;8.57;5.20;;;13.70;99.90;;;;;;5040472;28;20470;-29
2024/03/20 09:28:16;;;;;;;6.57;4.70;;;13.80;99.90;;;;;;5056714;28;20488;-29
2024/03/20 09:30:42;;;;;;;7.40;5.30;;;13.80;99.90;;;;;;5056305;28;20425;-33
2024/03/20 09:33:10;;;;;;;6.80;5.40;;;13.80;99.90;;;;;;5058954;28;20946;-28
2024/03/20 09:35:37;;;;;;;5.73;4.77;;;13.80;99.90;;;;;;5037765;28;21357;-29
2024/03/20 09:38:02;;;;;;;7.33;5.50;;;13.80;99.90;;;;;;5058521;28;20494;-27
2024/03/20 09:40:31;;;;;;;7.27;5.57;;;13.80;99.90;;;;;;5059556;28;20434;-27
2024/03/20 09:43:02;;;;;;;6.03;5.10;;;13.90;99.90;;;;;;5042918;28;21345;-32
2024/03/20 09:45:29;;;;;;;9.23;6.00;;;13.90;99.90;;;;;;5067600;28;20461;-30
2024/03/20 09:47:56;;;;;;;5.63;4.23;;;13.90;99.90;;;;;;5058755;28;20504;-30
2024/03/20 09:50:23;;;;;;;5.43;4.93;;;13.90;99.90;;;;;;5057182;28;20804;-31
2024/03/20 09:52:52;;;;;;;6.20;5.27;;;13.90;99.90;;;;;;5058915;28;20979;-28
2024/03/20 09:55:25;;;;;;;9.00;5.70;;;14.00;99.90;;;;;;5058133;28;20511;-30
2024/03/20 09:57:57;;;;;;;5.30;4.77;;;14.00;99.90;;;;;;5043272;28;20460;-30
2024/03/20 10:00:36;;;;;;;8.73;5.63;;;14.00;99.90;;;;;;5020587;28;21006;-28
2024/03/20 10:03:07;;;;;;;6.80;5.77;;;14.00;99.90;;;;;;5037979;28;20477;-32
2024/03/20 10:05:35;;;;;;;8.30;5.57;;;14.00;99.90;;;;;;5058474;28;20485;-30
2024/03/20 10:08:02;;;;;;;10.00;5.57;;;14.00;99.90;;;;;;5061061;28;20438;-27
2024/03/20 10:10:28;;;;;;;9.23;5.50;;;14.10;99.90;;;;;;5050648;28;21358;-27
2024/03/20 10:12:55;;;;;;;8.33;4.97;;;14.10;99.90;;;;;;5038836;28;21397;-27
2024/03/20 10:15:24;;;;;;;6.70;5.43;;;14.10;99.90;;;;;;5037123;28;20429;-26
2024/03/20 10:17:50;;;;;;;6.93;5.13;;;14.20;99.90;;;;;;5040884;28;20908;-28
2024/03/20 10:20:19;;;;;;;9.67;5.80;;;14.20;99.90;;;;;;5036654;28;21120;-27
2024/03/20 10:22:50;;;;;;;6.67;5.57;;;14.20;99.90;;;;;;5060900;28;20422;-25
2024/03/20 10:25:17;;;;;;;10.70;6.60;;;14.20;99.90;;;;;;5056692;28;21164;-27
2024/03/20 10:27:46;;;;;;;8.17;5.83;;;14.30;99.90;;;;;;5065779;28;20990;-29
2024/03/20 10:30:22;;;;;;;12.13;7.07;;;14.30;99.90;;;;;;5041064;28;21318;-27
2024/03/20 10:37:16;;;;;;;8.57;6.17;;;14.30;99.90;;;;;;5061196;28;20450;-25
2024/03/20 10:39:42;;;;;;;9.47;5.60;;;14.40;99.90;;;;;;5014761;28;20435;-26
2024/03/20 10:42:13;;;;;;;11.10;6.30;;;14.40;99.90;;;;;;5063907;28;20871;-28
2024/03/20 10:44:40;;;;;;;6.30;5.50;;;14.40;99.90;;;;;;5057124;28;21407;-28
2024/03/20 10:47:10;;;;;;;7.67;5.30;;;14.40;99.90;;;;;;5061488;28;21273;-26
2024/03/20 10:49:37;;;;;;;6.70;5.03;;;14.50;99.90;;;;;;5038387;28;20520;-25
2024/03/20 10:52:11;;;;;;;7.90;5.90;;;14.50;99.90;;;;;;5064888;28;20983;-26
2024/03/20 10:54:38;;;;;;;6.37;5.10;;;14.50;99.90;;;;;;5041836;28;20426;-28
2024/03/20 10:57:13;;;;;;;6.70;5.07;;;14.60;99.90;;;;;;5046206;28;20445;-29
2024/03/20 10:59:39;;;;;;;7.90;5.43;;;14.60;99.90;;;;;;5032088;28;20433;-24
2024/03/20 11:02:07;;;;;;;5.37;4.77;;;14.70;99.90;;;;;;5036934;28;20970;-29
2024/03/20 11:04:42;;;;;;;5.67;4.97;;;14.70;99.90;;;;;;5079167;28;20509;-28
2024/03/20 11:07:30;;;;;;;6.80;4.80;;;14.70;99.90;;;;;;5079524;28;20460;-27
2024/03/20 11:09:57;;;;;;;9.40;5.30;;;14.70;99.90;;;;;;5078256;28;20424;-26
2024/03/20 11:12:32;;;;;;;7.87;5.13;;;14.80;99.90;;;;;;5075243;28;20422;-26
2024/03/20 11:15:07;;;;;;;10.23;5.07;;;14.80;99.90;;;;;;5039376;28;20547;-25
2024/03/20 11:17:37;;;;;;;7.10;5.87;;;14.80;99.90;;;;;;5005207;28;20836;-26
2024/03/20 11:20:28;;;;;;;7.10;5.77;;;14.90;99.90;;;;;;5038863;28;20431;-26
2024/03/20 11:22:55;;;;;;;6.13;4.30;;;14.90;99.90;;;;;;5055189;28;20447;-26
2024/03/20 11:25:23;;;;;;;6.40;4.17;;;14.90;99.90;;;;;;5057264;28;21248;-27
2024/03/20 11:27:51;;;;;;;8.53;5.33;;;15.00;99.90;;;;;;5061749;28;20489;-26
2024/03/20 11:30:18;;;;;;;6.80;5.10;;;15.00;99.90;;;;;;5057561;28;20523;-26
2024/03/20 11:32:44;;;;;;;5.93;4.20;;;15.00;99.90;;;;;;5058567;28;20423;-29
2024/03/20 11:35:11;;;;;;;8.27;4.13;;;15.00;99.90;;;;;;5055968;28;20969;-26
2024/03/20 11:37:37;;;;;;;7.50;4.90;;;15.10;99.90;;;;;;5052825;28;20499;-26
2024/03/20 11:40:09;;;;;;;8.13;4.63;;;15.10;99.90;;;;;;5039168;28;20473;-26
2024/03/20 11:42:35;;;;;;;6.80;4.63;;;15.10;99.90;;;;;;5059384;28;20538;-25
2024/03/20 11:45:07;;;;;;;7.90;4.47;;;15.10;99.90;;;;;;5043778;28;20482;-32
2024/03/20 11:47:35;;;;;;;9.40;5.37;;;15.20;99.90;;;;;;5054591;28;20527;-27
2024/03/20 11:50:01;;;;;;;7.67;5.30;;;15.20;99.90;;;;;;5025029;28;21046;-27
2024/03/20 11:52:30;;;;;;;6.90;4.50;;;15.20;99.90;;;;;;5042391;28;20469;-27
2024/03/20 11:54:57;;;;;;;5.63;5.03;;;15.20;99.90;;;;;;5059290;28;20522;-28
2024/03/20 11:57:51;;;;;;;5.60;4.67;;;15.30;99.90;;;;;;5054671;28;20441;-29
2024/03/20 12:00:21;;;;;;;5.13;4.20;;;15.30;99.90;;;;;;5057740;28;20954;-29
2024/03/20 12:02:49;;;;;;;6.70;4.60;;;15.40;99.90;;;;;;5023508;28;20446;-33
2024/03/20 12:05:16;;;;;;;5.87;4.77;;;15.40;99.90;;;;;;5047900;28;20429;-27
2024/03/20 12:07:43;;;;;;;5.03;4.50;;;15.40;99.90;;;;;;5058470;28;20466;-29
2024/03/20 12:10:32;;;;;;;6.23;4.27;;;15.50;99.90;;;;;;5053425;28;20497;-29
2024/03/20 12:12:58;;;;;;;10.40;4.80;;;15.40;99.90;;;;;;5024779;28;20420;-28
2024/03/20 12:15:24;;;;;;;5.93;4.40;;;15.50;99.90;;;;;;5039267;28;20441;-30
2024/03/20 12:17:50;;;;;;;6.50;4.90;;;15.50;99.90;;;;;;5046051;28;20473;-27
2024/03/20 12:20:18;;;;;;;6.13;4.20;;;15.60;99.90;;;;;;5053470;28;20878;-27
2024/03/20 12:22:46;;;;;;;4.20;3.80;;;15.60;99.90;;;;;;5008850;28;20423;-29
2024/03/20 12:25:12;;;;;;;6.43;4.37;;;15.60;99.90;;;;;;5035501;28;20867;-28
2024/03/20 12:27:38;;;;;;;4.77;4.23;;;15.60;99.90;;;;;;5071911;28;21146;-30
2024/03/20 12:30:10;;;;;;;7.10;4.67;;;15.60;99.90;;;;;;5038192;28;20419;-28
2024/03/20 12:32:38;;;;;;;11.53;4.70;;;15.70;99.90;;;;;;5022509;28;20984;-28
2024/03/20 12:35:07;;;;;;;5.40;3.93;;;15.70;99.90;;;;;;5037302;28;20505;-28
2024/03/20 12:37:36;;;;;;;6.13;3.97;;;15.70;99.90;;;;;;5069651;28;20583;-28
2024/03/20 12:40:05;;;;;;;5.30;3.83;;;15.70;99.90;;;;;;5050969;28;20448;-28
2024/03/20 12:42:34;;;;;;;5.17;3.83;;;15.80;99.90;;;;;;5058530;28;20456;-27
2024/03/20 12:45:00;;;;;;;6.53;4.23;;;15.80;99.90;;;;;;5057467;28;20425;-30
2024/03/20 12:47:29;;;;;;;4.37;3.87;;;15.80;99.90;;;;;;5024990;28;21242;-29
2024/03/20 12:49:57;;;;;;;5.20;4.23;;;15.80;99.90;;;;;;5049342;28;20487;-30
2024/03/20 12:52:23;;;;;;;5.70;4.27;;;15.80;99.90;;;;;;5002097;28;21160;-31
2024/03/20 12:54:52;;;;;;;5.83;4.37;;;15.90;99.90;;;;;;5035844;28;21020;-32